sensor_id;sensor_type;location;lat;lon;timestamp;P1;durP1;ratioP1;P2;durP2;ratioP2
11709;SDS011;5911;51.036;6.972;2023-08-06T00:00:50;8.63;;;5.50;;
11709;SDS011;5911;51.036;6.972;2023-08-06T00:03:18;9.57;;;5.50;;
11709;SDS011;5911;51.036;6.972;2023-08-06T00:05:46;7.47;;;4.63;;
11709;SDS011;5911;51.036;6.972;2023-08-06T00:08:14;8.13;;;4.82;;
11709;SDS011;5911;51.036;6.972;2023-08-06T00:10:43;7.70;;;4.15;;
11709;SDS011;5911;51.036;6.972;2023-08-06T00:13:11;8.63;;;4.95;;
11709;SDS011;5911;51.036;6.972;2023-08-06T00:15:39;8.35;;;4.20;;
11709;SDS011;5911;51.036;6.972;2023-08-06T00:18:06;8.30;;;4.88;;
11709;SDS011;5911;51.036;6.972;2023-08-06T00:20:34;7.10;;;4.68;;
11709;SDS011;5911;51.036;6.972;2023-08-06T00:23:02;13.10;;;4.57;;
11709;SDS011;5911;51.036;6.972;2023-08-06T00:25:30;5.40;;;3.80;;
11709;SDS011;5911;51.036;6.972;2023-08-06T00:28:00;8.98;;;4.28;;
11709;SDS011;5911;51.036;6.972;2023-08-06T00:30:28;5.40;;;3.97;;
11709;SDS011;5911;51.036;6.972;2023-08-06T00:32:55;6.63;;;4.30;;
11709;SDS011;5911;51.036;6.972;2023-08-06T00:35:23;6.03;;;3.92;;
11709;SDS011;5911;51.036;6.972;2023-08-06T00:37:51;8.73;;;4.28;;
11709;SDS011;5911;51.036;6.972;2023-08-06T00:40:20;9.32;;;4.30;;
11709;SDS011;5911;51.036;6.972;2023-08-06T00:42:50;7.88;;;4.20;;
11709;SDS011;5911;51.036;6.972;2023-08-06T00:45:19;8.88;;;3.80;;
11709;SDS011;5911;51.036;6.972;2023-08-06T00:47:47;8.27;;;4.35;;
11709;SDS011;5911;51.036;6.972;2023-08-06T00:50:15;7.97;;;4.15;;
11709;SDS011;5911;51.036;6.972;2023-08-06T00:52:44;8.02;;;4.68;;
11709;SDS011;5911;51.036;6.972;2023-08-06T00:55:11;9.52;;;5.47;;
11709;SDS011;5911;51.036;6.972;2023-08-06T00:57:39;10.32;;;5.30;;
11709;SDS011;5911;51.036;6.972;2023-08-06T01:00:08;10.00;;;5.88;;
11709;SDS011;5911;51.036;6.972;2023-08-06T01:02:38;8.95;;;5.30;;
11709;SDS011;5911;51.036;6.972;2023-08-06T01:05:06;8.55;;;5.88;;
11709;SDS011;5911;51.036;6.972;2023-08-06T01:07:37;11.57;;;5.38;;
11709;SDS011;5911;51.036;6.972;2023-08-06T01:10:19;7.22;;;4.72;;
11709;SDS011;5911;51.036;6.972;2023-08-06T01:12:57;11.57;;;5.63;;
11709;SDS011;5911;51.036;6.972;2023-08-06T01:15:38;8.27;;;5.45;;
11709;SDS011;5911;51.036;6.972;2023-08-06T01:18:12;10.50;;;5.32;;
11709;SDS011;5911;51.036;6.972;2023-08-06T01:20:41;13.95;;;6.05;;
11709;SDS011;5911;51.036;6.972;2023-08-06T01:23:09;8.43;;;5.47;;
11709;SDS011;5911;51.036;6.972;2023-08-06T01:25:39;12.00;;;6.13;;
11709;SDS011;5911;51.036;6.972;2023-08-06T01:28:18;9.00;;;6.03;;
11709;SDS011;5911;51.036;6.972;2023-08-06T01:30:53;9.00;;;5.75;;
11709;SDS011;5911;51.036;6.972;2023-08-06T01:33:25;10.52;;;5.43;;
11709;SDS011;5911;51.036;6.972;2023-08-06T01:35:59;10.02;;;6.05;;
11709;SDS011;5911;51.036;6.972;2023-08-06T01:38:34;9.88;;;5.70;;
11709;SDS011;5911;51.036;6.972;2023-08-06T01:41:02;8.30;;;5.20;;
11709;SDS011;5911;51.036;6.972;2023-08-06T01:43:29;6.13;;;4.55;;
11709;SDS011;5911;51.036;6.972;2023-08-06T01:45:57;7.35;;;4.78;;
11709;SDS011;5911;51.036;6.972;2023-08-06T01:48:25;6.28;;;3.97;;
11709;SDS011;5911;51.036;6.972;2023-08-06T01:50:53;5.90;;;4.45;;
11709;SDS011;5911;51.036;6.972;2023-08-06T01:53:22;6.88;;;4.88;;
11709;SDS011;5911;51.036;6.972;2023-08-06T01:55:51;8.00;;;5.20;;
11709;SDS011;5911;51.036;6.972;2023-08-06T01:58:19;7.30;;;4.75;;
11709;SDS011;5911;51.036;6.972;2023-08-06T02:00:47;9.80;;;4.88;;
11709;SDS011;5911;51.036;6.972;2023-08-06T02:03:15;8.52;;;4.88;;
11709;SDS011;5911;51.036;6.972;2023-08-06T02:05:43;9.70;;;5.53;;
11709;SDS011;5911;51.036;6.972;2023-08-06T02:08:12;7.93;;;5.13;;
11709;SDS011;5911;51.036;6.972;2023-08-06T02:10:41;9.60;;;5.30;;
11709;SDS011;5911;51.036;6.972;2023-08-06T02:13:09;10.40;;;4.80;;
11709;SDS011;5911;51.036;6.972;2023-08-06T02:15:41;4.90;;;3.53;;
11709;SDS011;5911;51.036;6.972;2023-08-06T02:18:09;6.15;;;4.20;;
11709;SDS011;5911;51.036;6.972;2023-08-06T02:20:37;7.85;;;3.88;;
11709;SDS011;5911;51.036;6.972;2023-08-06T02:23:05;5.67;;;3.80;;
11709;SDS011;5911;51.036;6.972;2023-08-06T02:25:33;5.00;;;3.10;;
11709;SDS011;5911;51.036;6.972;2023-08-06T02:28:02;6.03;;;3.20;;
11709;SDS011;5911;51.036;6.972;2023-08-06T02:30:30;5.18;;;3.38;;
11709;SDS011;5911;51.036;6.972;2023-08-06T02:32:59;5.13;;;3.17;;
11709;SDS011;5911;51.036;6.972;2023-08-06T02:35:27;4.10;;;2.92;;
11709;SDS011;5911;51.036;6.972;2023-08-06T02:37:55;4.97;;;3.40;;
11709;SDS011;5911;51.036;6.972;2023-08-06T02:40:23;5.72;;;3.00;;
11709;SDS011;5911;51.036;6.972;2023-08-06T02:42:51;3.83;;;3.03;;
11709;SDS011;5911;51.036;6.972;2023-08-06T02:45:20;4.43;;;3.13;;
11709;SDS011;5911;51.036;6.972;2023-08-06T02:47:48;4.85;;;3.15;;
11709;SDS011;5911;51.036;6.972;2023-08-06T02:50:18;3.35;;;3.00;;
11709;SDS011;5911;51.036;6.972;2023-08-06T02:52:45;4.28;;;2.90;;
11709;SDS011;5911;51.036;6.972;2023-08-06T02:55:13;5.05;;;3.42;;
11709;SDS011;5911;51.036;6.972;2023-08-06T02:57:44;4.47;;;2.95;;
11709;SDS011;5911;51.036;6.972;2023-08-06T03:00:12;3.80;;;2.83;;
11709;SDS011;5911;51.036;6.972;2023-08-06T03:02:42;6.18;;;3.20;;
11709;SDS011;5911;51.036;6.972;2023-08-06T03:05:21;3.33;;;3.03;;
11709;SDS011;5911;51.036;6.972;2023-08-06T03:07:49;5.23;;;2.87;;
11709;SDS011;5911;51.036;6.972;2023-08-06T03:10:21;4.57;;;3.00;;
11709;SDS011;5911;51.036;6.972;2023-08-06T03:12:52;4.70;;;3.08;;
11709;SDS011;5911;51.036;6.972;2023-08-06T03:15:21;3.58;;;2.70;;
11709;SDS011;5911;51.036;6.972;2023-08-06T03:17:51;4.90;;;2.88;;
11709;SDS011;5911;51.036;6.972;2023-08-06T03:20:24;5.33;;;2.73;;
11709;SDS011;5911;51.036;6.972;2023-08-06T03:22:52;4.83;;;3.00;;
11709;SDS011;5911;51.036;6.972;2023-08-06T03:25:20;3.93;;;2.67;;
11709;SDS011;5911;51.036;6.972;2023-08-06T03:27:49;4.95;;;3.03;;
11709;SDS011;5911;51.036;6.972;2023-08-06T03:30:18;5.93;;;3.73;;
11709;SDS011;5911;51.036;6.972;2023-08-06T03:32:48;4.47;;;3.00;;
11709;SDS011;5911;51.036;6.972;2023-08-06T03:35:20;5.82;;;3.25;;
11709;SDS011;5911;51.036;6.972;2023-08-06T03:37:48;3.15;;;2.83;;
11709;SDS011;5911;51.036;6.972;2023-08-06T03:40:16;4.30;;;2.60;;
11709;SDS011;5911;51.036;6.972;2023-08-06T03:42:44;3.08;;;2.70;;
11709;SDS011;5911;51.036;6.972;2023-08-06T03:45:12;7.57;;;3.00;;
11709;SDS011;5911;51.036;6.972;2023-08-06T03:47:41;6.80;;;3.38;;
11709;SDS011;5911;51.036;6.972;2023-08-06T03:50:10;3.20;;;2.60;;
11709;SDS011;5911;51.036;6.972;2023-08-06T03:52:39;3.72;;;2.90;;
11709;SDS011;5911;51.036;6.972;2023-08-06T03:55:07;5.63;;;2.85;;
11709;SDS011;5911;51.036;6.972;2023-08-06T03:57:36;3.60;;;2.92;;
11709;SDS011;5911;51.036;6.972;2023-08-06T04:00:04;6.30;;;2.93;;
11709;SDS011;5911;51.036;6.972;2023-08-06T04:02:40;4.47;;;3.47;;
11709;SDS011;5911;51.036;6.972;2023-08-06T04:05:12;4.75;;;3.50;;
11709;SDS011;5911;51.036;6.972;2023-08-06T04:07:41;6.72;;;3.70;;
11709;SDS011;5911;51.036;6.972;2023-08-06T04:10:09;5.85;;;4.07;;
11709;SDS011;5911;51.036;6.972;2023-08-06T04:12:37;7.30;;;4.25;;
11709;SDS011;5911;51.036;6.972;2023-08-06T04:15:06;6.00;;;4.40;;
11709;SDS011;5911;51.036;6.972;2023-08-06T04:17:34;9.38;;;4.95;;
11709;SDS011;5911;51.036;6.972;2023-08-06T04:20:02;6.80;;;4.83;;
11709;SDS011;5911;51.036;6.972;2023-08-06T04:22:30;9.32;;;4.88;;
11709;SDS011;5911;51.036;6.972;2023-08-06T04:24:59;7.93;;;5.00;;
11709;SDS011;5911;51.036;6.972;2023-08-06T04:27:27;6.10;;;5.15;;
11709;SDS011;5911;51.036;6.972;2023-08-06T04:29:55;6.95;;;4.95;;
11709;SDS011;5911;51.036;6.972;2023-08-06T04:32:24;9.27;;;5.10;;
11709;SDS011;5911;51.036;6.972;2023-08-06T04:34:55;9.50;;;5.13;;
11709;SDS011;5911;51.036;6.972;2023-08-06T04:37:23;8.10;;;4.00;;
11709;SDS011;5911;51.036;6.972;2023-08-06T04:39:51;6.17;;;3.30;;
11709;SDS011;5911;51.036;6.972;2023-08-06T04:42:20;6.13;;;3.13;;
11709;SDS011;5911;51.036;6.972;2023-08-06T04:44:49;3.30;;;2.70;;
11709;SDS011;5911;51.036;6.972;2023-08-06T04:47:17;5.32;;;2.75;;
11709;SDS011;5911;51.036;6.972;2023-08-06T04:49:47;3.17;;;2.30;;
11709;SDS011;5911;51.036;6.972;2023-08-06T04:52:14;3.08;;;2.47;;
11709;SDS011;5911;51.036;6.972;2023-08-06T04:54:43;5.00;;;2.50;;
11709;SDS011;5911;51.036;6.972;2023-08-06T04:57:11;4.25;;;2.45;;
11709;SDS011;5911;51.036;6.972;2023-08-06T04:59:40;5.03;;;2.85;;
11709;SDS011;5911;51.036;6.972;2023-08-06T05:02:08;4.28;;;2.92;;
11709;SDS011;5911;51.036;6.972;2023-08-06T05:04:35;7.53;;;2.80;;
11709;SDS011;5911;51.036;6.972;2023-08-06T05:07:03;3.15;;;2.63;;
11709;SDS011;5911;51.036;6.972;2023-08-06T05:09:32;3.15;;;2.65;;
11709;SDS011;5911;51.036;6.972;2023-08-06T05:12:00;4.03;;;2.60;;
11709;SDS011;5911;51.036;6.972;2023-08-06T05:14:28;3.80;;;2.80;;
11709;SDS011;5911;51.036;6.972;2023-08-06T05:16:58;4.68;;;2.53;;
11709;SDS011;5911;51.036;6.972;2023-08-06T05:19:26;3.13;;;2.78;;
11709;SDS011;5911;51.036;6.972;2023-08-06T05:21:53;3.28;;;2.28;;
11709;SDS011;5911;51.036;6.972;2023-08-06T05:24:21;5.40;;;2.53;;
11709;SDS011;5911;51.036;6.972;2023-08-06T05:26:49;2.87;;;2.50;;
11709;SDS011;5911;51.036;6.972;2023-08-06T05:29:17;3.00;;;2.70;;
11709;SDS011;5911;51.036;6.972;2023-08-06T05:31:44;2.83;;;2.63;;
11709;SDS011;5911;51.036;6.972;2023-08-06T05:34:14;3.33;;;2.67;;
11709;SDS011;5911;51.036;6.972;2023-08-06T05:36:41;4.00;;;2.30;;
11709;SDS011;5911;51.036;6.972;2023-08-06T05:39:09;3.72;;;2.50;;
11709;SDS011;5911;51.036;6.972;2023-08-06T05:41:37;3.83;;;2.63;;
11709;SDS011;5911;51.036;6.972;2023-08-06T05:44:05;5.35;;;2.63;;
11709;SDS011;5911;51.036;6.972;2023-08-06T05:46:33;4.72;;;2.50;;
11709;SDS011;5911;51.036;6.972;2023-08-06T05:49:03;4.20;;;2.63;;
11709;SDS011;5911;51.036;6.972;2023-08-06T05:51:32;7.07;;;2.83;;
11709;SDS011;5911;51.036;6.972;2023-08-06T05:54:00;4.78;;;2.88;;
11709;SDS011;5911;51.036;6.972;2023-08-06T05:56:28;3.38;;;2.50;;
11709;SDS011;5911;51.036;6.972;2023-08-06T05:58:56;2.53;;;2.33;;
11709;SDS011;5911;51.036;6.972;2023-08-06T06:01:24;4.03;;;2.35;;
11709;SDS011;5911;51.036;6.972;2023-08-06T06:03:54;3.75;;;2.70;;
11709;SDS011;5911;51.036;6.972;2023-08-06T06:06:22;6.15;;;2.65;;
11709;SDS011;5911;51.036;6.972;2023-08-06T06:08:51;4.15;;;2.38;;
11709;SDS011;5911;51.036;6.972;2023-08-06T06:11:19;4.32;;;2.60;;
11709;SDS011;5911;51.036;6.972;2023-08-06T06:13:49;5.82;;;2.55;;
11709;SDS011;5911;51.036;6.972;2023-08-06T06:16:18;4.63;;;3.08;;
11709;SDS011;5911;51.036;6.972;2023-08-06T06:18:46;4.15;;;2.80;;
11709;SDS011;5911;51.036;6.972;2023-08-06T06:21:14;3.70;;;2.80;;
11709;SDS011;5911;51.036;6.972;2023-08-06T06:23:41;4.20;;;2.15;;
11709;SDS011;5911;51.036;6.972;2023-08-06T06:26:10;3.63;;;2.50;;
11709;SDS011;5911;51.036;6.972;2023-08-06T06:28:39;4.78;;;2.50;;
11709;SDS011;5911;51.036;6.972;2023-08-06T06:31:07;3.17;;;2.30;;
11709;SDS011;5911;51.036;6.972;2023-08-06T06:33:35;5.70;;;3.17;;
11709;SDS011;5911;51.036;6.972;2023-08-06T06:36:03;4.93;;;2.35;;
11709;SDS011;5911;51.036;6.972;2023-08-06T06:38:33;3.45;;;2.30;;
11709;SDS011;5911;51.036;6.972;2023-08-06T06:41:01;4.72;;;2.63;;
11709;SDS011;5911;51.036;6.972;2023-08-06T06:43:31;2.90;;;2.28;;
11709;SDS011;5911;51.036;6.972;2023-08-06T06:45:59;5.57;;;3.45;;
11709;SDS011;5911;51.036;6.972;2023-08-06T06:48:27;3.85;;;2.60;;
11709;SDS011;5911;51.036;6.972;2023-08-06T06:50:56;4.15;;;2.80;;
11709;SDS011;5911;51.036;6.972;2023-08-06T06:53:24;5.15;;;2.88;;
11709;SDS011;5911;51.036;6.972;2023-08-06T06:55:54;3.65;;;3.25;;
11709;SDS011;5911;51.036;6.972;2023-08-06T06:58:21;3.60;;;2.88;;
11709;SDS011;5911;51.036;6.972;2023-08-06T07:00:51;4.18;;;2.70;;
11709;SDS011;5911;51.036;6.972;2023-08-06T07:03:19;3.63;;;2.88;;
11709;SDS011;5911;51.036;6.972;2023-08-06T07:05:47;4.93;;;2.90;;
11709;SDS011;5911;51.036;6.972;2023-08-06T07:08:16;4.53;;;3.05;;
11709;SDS011;5911;51.036;6.972;2023-08-06T07:10:44;5.57;;;3.25;;
11709;SDS011;5911;51.036;6.972;2023-08-06T07:13:12;2.88;;;2.67;;
11709;SDS011;5911;51.036;6.972;2023-08-06T07:15:39;3.17;;;2.83;;
11709;SDS011;5911;51.036;6.972;2023-08-06T07:18:08;3.20;;;2.47;;
11709;SDS011;5911;51.036;6.972;2023-08-06T07:20:36;4.97;;;3.25;;
11709;SDS011;5911;51.036;6.972;2023-08-06T07:23:04;5.07;;;2.95;;
11709;SDS011;5911;51.036;6.972;2023-08-06T07:25:34;4.90;;;2.60;;
11709;SDS011;5911;51.036;6.972;2023-08-06T07:28:02;4.88;;;3.17;;
11709;SDS011;5911;51.036;6.972;2023-08-06T07:30:30;4.80;;;3.60;;
11709;SDS011;5911;51.036;6.972;2023-08-06T07:32:58;6.22;;;4.22;;
11709;SDS011;5911;51.036;6.972;2023-08-06T07:35:29;5.43;;;4.72;;
11709;SDS011;5911;51.036;6.972;2023-08-06T07:37:57;4.70;;;4.30;;
11709;SDS011;5911;51.036;6.972;2023-08-06T07:40:25;4.75;;;4.28;;
11709;SDS011;5911;51.036;6.972;2023-08-06T07:42:53;5.53;;;4.60;;
11709;SDS011;5911;51.036;6.972;2023-08-06T07:45:21;3.50;;;3.20;;
11709;SDS011;5911;51.036;6.972;2023-08-06T07:47:48;4.10;;;3.17;;
11709;SDS011;5911;51.036;6.972;2023-08-06T07:50:17;3.50;;;3.20;;
11709;SDS011;5911;51.036;6.972;2023-08-06T07:52:46;4.72;;;3.60;;
11709;SDS011;5911;51.036;6.972;2023-08-06T07:55:14;3.83;;;3.45;;
11709;SDS011;5911;51.036;6.972;2023-08-06T07:57:42;6.03;;;4.13;;
11709;SDS011;5911;51.036;6.972;2023-08-06T08:00:10;4.30;;;3.88;;
11709;SDS011;5911;51.036;6.972;2023-08-06T08:02:38;3.35;;;3.05;;
11709;SDS011;5911;51.036;6.972;2023-08-06T08:05:06;3.38;;;3.08;;
11709;SDS011;5911;51.036;6.972;2023-08-06T08:07:34;3.13;;;2.92;;
11709;SDS011;5911;51.036;6.972;2023-08-06T08:10:04;3.05;;;2.85;;
11709;SDS011;5911;51.036;6.972;2023-08-06T08:12:32;2.70;;;2.50;;
11709;SDS011;5911;51.036;6.972;2023-08-06T08:15:00;4.07;;;2.35;;
11709;SDS011;5911;51.036;6.972;2023-08-06T08:17:29;3.50;;;2.83;;
11709;SDS011;5911;51.036;6.972;2023-08-06T08:19:57;2.95;;;2.72;;
11709;SDS011;5911;51.036;6.972;2023-08-06T08:22:25;2.88;;;2.05;;
11709;SDS011;5911;51.036;6.972;2023-08-06T08:24:53;2.20;;;1.83;;
11709;SDS011;5911;51.036;6.972;2023-08-06T08:27:22;4.55;;;2.00;;
11709;SDS011;5911;51.036;6.972;2023-08-06T08:29:49;1.70;;;1.35;;
11709;SDS011;5911;51.036;6.972;2023-08-06T08:32:18;1.60;;;1.33;;
11709;SDS011;5911;51.036;6.972;2023-08-06T08:34:45;2.78;;;1.27;;
11709;SDS011;5911;51.036;6.972;2023-08-06T08:37:13;3.03;;;1.58;;
11709;SDS011;5911;51.036;6.972;2023-08-06T08:39:41;2.25;;;1.40;;
11709;SDS011;5911;51.036;6.972;2023-08-06T08:42:09;1.73;;;1.33;;
11709;SDS011;5911;51.036;6.972;2023-08-06T08:44:39;1.40;;;1.30;;
11709;SDS011;5911;51.036;6.972;2023-08-06T08:47:07;1.70;;;1.60;;
11709;SDS011;5911;51.036;6.972;2023-08-06T08:49:36;1.67;;;1.58;;
11709;SDS011;5911;51.036;6.972;2023-08-06T08:52:10;1.40;;;1.30;;
11709;SDS011;5911;51.036;6.972;2023-08-06T08:54:41;1.90;;;1.70;;
11709;SDS011;5911;51.036;6.972;2023-08-06T08:57:10;1.67;;;1.58;;
11709;SDS011;5911;51.036;6.972;2023-08-06T08:59:40;7.03;;;2.25;;
11709;SDS011;5911;51.036;6.972;2023-08-06T09:02:08;2.33;;;2.13;;
11709;SDS011;5911;51.036;6.972;2023-08-06T09:04:38;3.25;;;2.20;;
11709;SDS011;5911;51.036;6.972;2023-08-06T09:07:07;2.42;;;2.22;;
11709;SDS011;5911;51.036;6.972;2023-08-06T09:09:37;2.30;;;2.10;;
11709;SDS011;5911;51.036;6.972;2023-08-06T09:12:12;4.65;;;2.28;;
11709;SDS011;5911;51.036;6.972;2023-08-06T09:14:43;2.78;;;2.58;;
11709;SDS011;5911;51.036;6.972;2023-08-06T09:17:11;2.45;;;2.22;;
11709;SDS011;5911;51.036;6.972;2023-08-06T09:19:41;5.90;;;4.90;;
11709;SDS011;5911;51.036;6.972;2023-08-06T09:22:13;6.72;;;5.78;;
11709;SDS011;5911;51.036;6.972;2023-08-06T09:24:41;5.18;;;4.45;;
11709;SDS011;5911;51.036;6.972;2023-08-06T09:27:10;4.80;;;4.40;;
11709;SDS011;5911;51.036;6.972;2023-08-06T09:29:40;4.40;;;3.70;;
11709;SDS011;5911;51.036;6.972;2023-08-06T09:32:10;5.47;;;3.90;;
11709;SDS011;5911;51.036;6.972;2023-08-06T09:34:38;3.80;;;3.47;;
11709;SDS011;5911;51.036;6.972;2023-08-06T09:37:08;5.78;;;4.57;;
11709;SDS011;5911;51.036;6.972;2023-08-06T09:39:38;6.20;;;5.55;;
11709;SDS011;5911;51.036;6.972;2023-08-06T09:42:09;5.72;;;5.22;;
11709;SDS011;5911;51.036;6.972;2023-08-06T09:44:38;5.88;;;5.38;;
11709;SDS011;5911;51.036;6.972;2023-08-06T09:47:09;5.15;;;4.75;;
11709;SDS011;5911;51.036;6.972;2023-08-06T09:49:41;5.53;;;5.03;;
11709;SDS011;5911;51.036;6.972;2023-08-06T09:52:12;4.80;;;4.40;;
11709;SDS011;5911;51.036;6.972;2023-08-06T09:54:42;4.32;;;3.92;;
11709;SDS011;5911;51.036;6.972;2023-08-06T09:57:11;3.70;;;3.35;;
11709;SDS011;5911;51.036;6.972;2023-08-06T09:59:39;3.55;;;3.25;;
11709;SDS011;5911;51.036;6.972;2023-08-06T10:02:12;3.50;;;3.20;;
11709;SDS011;5911;51.036;6.972;2023-08-06T10:04:42;4.90;;;4.00;;
11709;SDS011;5911;51.036;6.972;2023-08-06T10:07:20;3.80;;;3.50;;
11709;SDS011;5911;51.036;6.972;2023-08-06T10:09:50;2.23;;;1.97;;
11709;SDS011;5911;51.036;6.972;2023-08-06T10:12:18;2.03;;;1.40;;
11709;SDS011;5911;51.036;6.972;2023-08-06T10:14:46;1.45;;;1.02;;
11709;SDS011;5911;51.036;6.972;2023-08-06T10:17:18;1.65;;;1.00;;
11709;SDS011;5911;51.036;6.972;2023-08-06T10:19:46;2.15;;;1.08;;
11709;SDS011;5911;51.036;6.972;2023-08-06T10:22:16;1.10;;;1.00;;
11709;SDS011;5911;51.036;6.972;2023-08-06T10:24:51;1.02;;;0.93;;
11709;SDS011;5911;51.036;6.972;2023-08-06T10:27:27;3.10;;;0.68;;
11709;SDS011;5911;51.036;6.972;2023-08-06T10:29:56;4.90;;;1.20;;
11709;SDS011;5911;51.036;6.972;2023-08-06T10:32:48;6.22;;;1.15;;
11709;SDS011;5911;51.036;6.972;2023-08-06T10:35:30;2.20;;;1.10;;
11709;SDS011;5911;51.036;6.972;2023-08-06T10:37:59;5.37;;;1.10;;
11709;SDS011;5911;51.036;6.972;2023-08-06T10:40:31;3.43;;;1.00;;
11709;SDS011;5911;51.036;6.972;2023-08-06T10:42:59;8.43;;;1.50;;
11709;SDS011;5911;51.036;6.972;2023-08-06T10:45:27;4.20;;;1.75;;
11709;SDS011;5911;51.036;6.972;2023-08-06T10:47:58;5.65;;;2.00;;
11709;SDS011;5911;51.036;6.972;2023-08-06T10:50:25;4.07;;;1.90;;
11709;SDS011;5911;51.036;6.972;2023-08-06T10:52:53;2.10;;;1.90;;
11709;SDS011;5911;51.036;6.972;2023-08-06T10:55:22;3.92;;;2.10;;
11709;SDS011;5911;51.036;6.972;2023-08-06T10:57:51;3.90;;;2.08;;
11709;SDS011;5911;51.036;6.972;2023-08-06T11:00:18;2.10;;;1.80;;
11709;SDS011;5911;51.036;6.972;2023-08-06T11:02:48;1.47;;;1.23;;
11709;SDS011;5911;51.036;6.972;2023-08-06T11:05:18;2.70;;;1.70;;
11709;SDS011;5911;51.036;6.972;2023-08-06T11:07:46;1.52;;;1.30;;
11709;SDS011;5911;51.036;6.972;2023-08-06T11:10:15;3.67;;;1.58;;
11709;SDS011;5911;51.036;6.972;2023-08-06T11:12:43;1.88;;;1.55;;
11709;SDS011;5911;51.036;6.972;2023-08-06T11:15:11;4.87;;;1.60;;
11709;SDS011;5911;51.036;6.972;2023-08-06T11:17:39;4.07;;;1.70;;
11709;SDS011;5911;51.036;6.972;2023-08-06T11:20:08;3.50;;;2.00;;
11709;SDS011;5911;51.036;6.972;2023-08-06T11:22:39;8.65;;;2.25;;
11709;SDS011;5911;51.036;6.972;2023-08-06T11:25:07;3.30;;;2.25;;
11709;SDS011;5911;51.036;6.972;2023-08-06T11:27:35;3.85;;;2.55;;
11709;SDS011;5911;51.036;6.972;2023-08-06T11:30:03;2.65;;;2.38;;
11709;SDS011;5911;51.036;6.972;2023-08-06T11:32:32;2.92;;;2.65;;
11709;SDS011;5911;51.036;6.972;2023-08-06T11:35:09;3.73;;;2.60;;
11709;SDS011;5911;51.036;6.972;2023-08-06T11:37:39;3.57;;;2.60;;
11709;SDS011;5911;51.036;6.972;2023-08-06T11:40:12;3.57;;;2.63;;
11709;SDS011;5911;51.036;6.972;2023-08-06T11:42:42;7.20;;;2.53;;
11709;SDS011;5911;51.036;6.972;2023-08-06T11:45:10;4.40;;;2.80;;
11709;SDS011;5911;51.036;6.972;2023-08-06T11:47:38;4.53;;;2.70;;
11709;SDS011;5911;51.036;6.972;2023-08-06T11:50:07;4.13;;;2.73;;
11709;SDS011;5911;51.036;6.972;2023-08-06T11:52:38;4.57;;;2.73;;
11709;SDS011;5911;51.036;6.972;2023-08-06T11:55:08;3.80;;;2.87;;
11709;SDS011;5911;51.036;6.972;2023-08-06T11:57:37;5.97;;;2.90;;
11709;SDS011;5911;51.036;6.972;2023-08-06T12:00:07;4.63;;;3.40;;
11709;SDS011;5911;51.036;6.972;2023-08-06T12:02:44;4.60;;;2.80;;
11709;SDS011;5911;51.036;6.972;2023-08-06T12:05:13;5.13;;;3.43;;
11709;SDS011;5911;51.036;6.972;2023-08-06T12:07:44;4.77;;;3.13;;
11709;SDS011;5911;51.036;6.972;2023-08-06T12:10:13;6.40;;;3.60;;
11709;SDS011;5911;51.036;6.972;2023-08-06T12:12:41;3.88;;;2.72;;
11709;SDS011;5911;51.036;6.972;2023-08-06T12:15:09;6.43;;;2.95;;
11709;SDS011;5911;51.036;6.972;2023-08-06T12:17:37;5.35;;;2.55;;
11709;SDS011;5911;51.036;6.972;2023-08-06T12:20:06;5.35;;;3.33;;
11709;SDS011;5911;51.036;6.972;2023-08-06T12:22:35;3.78;;;2.53;;
11709;SDS011;5911;51.036;6.972;2023-08-06T12:25:07;4.60;;;3.00;;
11709;SDS011;5911;51.036;6.972;2023-08-06T12:27:38;4.43;;;2.88;;
11709;SDS011;5911;51.036;6.972;2023-08-06T12:30:07;5.47;;;2.80;;
11709;SDS011;5911;51.036;6.972;2023-08-06T12:32:36;2.85;;;2.50;;
11709;SDS011;5911;51.036;6.972;2023-08-06T12:35:05;5.37;;;3.03;;
11709;SDS011;5911;51.036;6.972;2023-08-06T12:37:34;5.57;;;2.80;;
11709;SDS011;5911;51.036;6.972;2023-08-06T12:40:03;3.53;;;2.20;;
11709;SDS011;5911;51.036;6.972;2023-08-06T12:42:51;5.10;;;2.77;;
11709;SDS011;5911;51.036;6.972;2023-08-06T12:45:19;3.77;;;2.33;;
11709;SDS011;5911;51.036;6.972;2023-08-06T12:47:48;3.33;;;2.10;;
11709;SDS011;5911;51.036;6.972;2023-08-06T12:50:16;3.93;;;2.50;;
11709;SDS011;5911;51.036;6.972;2023-08-06T12:52:44;4.33;;;2.70;;
11709;SDS011;5911;51.036;6.972;2023-08-06T12:55:12;3.20;;;2.03;;
11709;SDS011;5911;51.036;6.972;2023-08-06T12:57:40;5.22;;;2.58;;
11709;SDS011;5911;51.036;6.972;2023-08-06T13:00:25;4.27;;;1.90;;
11709;SDS011;5911;51.036;6.972;2023-08-06T13:02:54;3.60;;;2.60;;
11709;SDS011;5911;51.036;6.972;2023-08-06T13:05:22;4.30;;;2.13;;
11709;SDS011;5911;51.036;6.972;2023-08-06T13:07:50;3.47;;;2.47;;
11709;SDS011;5911;51.036;6.972;2023-08-06T13:10:17;2.40;;;1.77;;
11709;SDS011;5911;51.036;6.972;2023-08-06T13:12:46;3.00;;;2.13;;
11709;SDS011;5911;51.036;6.972;2023-08-06T13:15:17;4.50;;;2.00;;
11709;SDS011;5911;51.036;6.972;2023-08-06T13:17:48;4.20;;;2.50;;
11709;SDS011;5911;51.036;6.972;2023-08-06T13:20:16;3.23;;;2.07;;
11709;SDS011;5911;51.036;6.972;2023-08-06T13:22:46;3.30;;;2.30;;
11709;SDS011;5911;51.036;6.972;2023-08-06T13:25:16;3.22;;;2.20;;
11709;SDS011;5911;51.036;6.972;2023-08-06T13:27:44;3.90;;;2.60;;
11709;SDS011;5911;51.036;6.972;2023-08-06T13:30:14;2.80;;;2.47;;
11709;SDS011;5911;51.036;6.972;2023-08-06T13:32:42;3.23;;;2.13;;
11709;SDS011;5911;51.036;6.972;2023-08-06T13:35:12;3.10;;;2.35;;
11709;SDS011;5911;51.036;6.972;2023-08-06T13:37:40;4.20;;;2.70;;
11709;SDS011;5911;51.036;6.972;2023-08-06T13:40:07;4.47;;;2.60;;
11709;SDS011;5911;51.036;6.972;2023-08-06T13:42:36;3.17;;;2.57;;
11709;SDS011;5911;51.036;6.972;2023-08-06T13:45:04;4.43;;;2.60;;
11709;SDS011;5911;51.036;6.972;2023-08-06T13:47:32;3.88;;;2.72;;
11709;SDS011;5911;51.036;6.972;2023-08-06T13:50:00;4.07;;;2.75;;
11709;SDS011;5911;51.036;6.972;2023-08-06T13:52:30;4.70;;;3.00;;
11709;SDS011;5911;51.036;6.972;2023-08-06T13:55:01;6.13;;;4.18;;
11709;SDS011;5911;51.036;6.972;2023-08-06T13:57:30;4.75;;;3.05;;
11709;SDS011;5911;51.036;6.972;2023-08-06T13:59:57;3.70;;;3.13;;
11709;SDS011;5911;51.036;6.972;2023-08-06T14:02:25;6.43;;;2.93;;
11709;SDS011;5911;51.036;6.972;2023-08-06T14:04:54;5.75;;;3.40;;
11709;SDS011;5911;51.036;6.972;2023-08-06T14:07:21;6.40;;;2.97;;
11709;SDS011;5911;51.036;6.972;2023-08-06T14:09:50;5.95;;;3.20;;
11709;SDS011;5911;51.036;6.972;2023-08-06T14:12:18;6.03;;;2.70;;
11709;SDS011;5911;51.036;6.972;2023-08-06T14:14:46;4.77;;;2.83;;
11709;SDS011;5911;51.036;6.972;2023-08-06T14:17:14;5.93;;;3.22;;
11709;SDS011;5911;51.036;6.972;2023-08-06T14:19:42;6.35;;;3.70;;
11709;SDS011;5911;51.036;6.972;2023-08-06T14:22:09;3.95;;;3.40;;
11709;SDS011;5911;51.036;6.972;2023-08-06T14:24:37;3.72;;;3.28;;
11709;SDS011;5911;51.036;6.972;2023-08-06T14:27:07;4.72;;;3.00;;
11709;SDS011;5911;51.036;6.972;2023-08-06T14:29:34;4.13;;;2.95;;
11709;SDS011;5911;51.036;6.972;2023-08-06T14:32:03;3.95;;;3.10;;
11709;SDS011;5911;51.036;6.972;2023-08-06T14:34:31;4.15;;;3.63;;
11709;SDS011;5911;51.036;6.972;2023-08-06T14:36:59;5.70;;;2.60;;
11709;SDS011;5911;51.036;6.972;2023-08-06T14:39:26;4.28;;;1.88;;
11709;SDS011;5911;51.036;6.972;2023-08-06T14:41:54;3.65;;;2.28;;
11709;SDS011;5911;51.036;6.972;2023-08-06T14:44:23;6.75;;;2.58;;
11709;SDS011;5911;51.036;6.972;2023-08-06T14:46:51;3.10;;;2.00;;
11709;SDS011;5911;51.036;6.972;2023-08-06T14:49:19;3.40;;;2.03;;
11709;SDS011;5911;51.036;6.972;2023-08-06T14:51:58;4.78;;;2.22;;
11709;SDS011;5911;51.036;6.972;2023-08-06T14:54:28;8.48;;;2.42;;
11709;SDS011;5911;51.036;6.972;2023-08-06T14:56:55;2.55;;;2.13;;
11709;SDS011;5911;51.036;6.972;2023-08-06T14:59:25;6.47;;;2.50;;
11709;SDS011;5911;51.036;6.972;2023-08-06T15:01:53;4.10;;;2.30;;
11709;SDS011;5911;51.036;6.972;2023-08-06T15:04:20;5.57;;;2.70;;
11709;SDS011;5911;51.036;6.972;2023-08-06T15:06:51;8.43;;;2.75;;
11709;SDS011;5911;51.036;6.972;2023-08-06T15:09:19;6.47;;;2.55;;
11709;SDS011;5911;51.036;6.972;2023-08-06T15:11:48;4.85;;;2.22;;